WETTERDATEN

GESTERN
Time Temp. Taup. r.Fe. Windrich Windstärke Windböe Druck 1h Prec. 24h Prec.
00:00 3.1 0.3 82 270 0.3 1.4 1006 0.0000 0.0000
00:11 3.1 0.3 82 270 0.3 1.1 1006 0.0000 0.0000
00:30 3.2 0.4 82 270 0.8 1.4 1005.7 0.0000 0.0000
00:51 3.1 0.3 82 270 0.3 1.1 1005.4 0.0000 0.0000
01:10 3 0.2 82 315 0.3 1.4 1005 0.0000 0.0000
01:22 2.9 0.1 82 315 0.3 1.4 1004.9 0.0000 0.0000
01:32 2.9 0.1 82 327 0.3 1.1 1004.7 0.0000 0.0000
01:42 2.9 0.1 82 309 0.3 1.1 1004.5 0.0000 0.0000
02:03 2.9 0.3 83 270 0.3 1.4 1004.2 0.0000 0.0000
02:12 2.9 0.3 83 270 0.3 1.4 1004 0.0000 0.0000
02:22 3 0.4 83 315 0.3 1.1 1003.9 0.0000 0.0000
02:32 3 0.4 83 270 0.3 1.4 1003.7 0.0000 0.0000
02:43 3 0.4 83 270 0.3 1.1 1003.7 0.0000 0.0000
02:53 3 0.4 83 270 0.3 1.4 1003.6 0.0000 0.0000
03:02 3 0.4 83 302 0.3 1.1 1003.5 0.0000 0.0000
03:13 3 0.4 83 270 0.3 1.4 1003.3 0.0000 0.0000
03:23 3.1 0.5 83 270 0.3 1.1 1003.1 0.0000 0.0000
03:33 3.1 0.5 83 270 0.3 1.4 1003 0.0000 0.0000
03:43 3.1 0.5 83 270 0.3 1.1 1002.8 0.0000 0.0000
03:53 3.2 0.6 83 270 0.3 1.4 1002.6 0.0000 0.0000
04:03 3.2 0.6 83 270 0.3 1.4 1002.6 0.0000 0.0000
04:13 3.3 0.7 83 270 0.3 1.4 1002.4 0.0000 0.0000
04:24 3.3 0.7 83 270 0.8 1.1 1002.3 0.0000 0.0000
04:33 3.4 0.8 83 270 0.3 1.1 1002.2 0.0000 0.0000
04:43 3.4 0.8 83 270 0.3 1.1 1001.9 0.0000 0.0000
04:53 3.4 0.8 83 270 0.3 1.1 1001.8 0.0000 0.0000
05:04 3.4 0.8 83 270 0.3 1.1 1001.5 0.0000 0.0000
05:14 3.3 0.7 83 270 0.3 1.1 1001.4 0.0000 0.0000
05:23 3.3 0.7 83 270 0.3 1.1 1001.3 0.0000 0.0000
05:34 3.3 0.7 83 270 0.3 1.4 1001.1 0.0000 0.0000
05:44 3.2 0.6 83 270 0.3 1.1 1001.2 0.0000 0.0000
05:54 3.2 0.6 83 270 0.3 1.4 1001.1 0.0000 0.0000
06:04 3.3 0.7 83 270 0.3 1.1 1001 0.0000 0.0000
06:14 3.3 0.7 83 270 0.3 1.1 1001 0.0000 0.0000
06:24 3.3 0.7 83 270 0.8 1.1 1000.8 0.0000 0.0000
06:45 3.3 0.7 83 321 0.3 1.4 1000.3 0.0000 0.0000
06:54 3.2 0.6 83 270 0.3 1.4 1000.2 0.0000 0.0000
07:04 3.3 0.7 83 270 0.3 1.4 1000.1 0.0000 0.0000
07:14 3.3 0.7 83 270 0.3 1.4 999.9 0.0000 0.0000
07:25 3.3 0.5 82 315 0.3 1.1 999.6 0.0000 0.0000
07:35 3.4 0.6 82 310 0.3 1.1 999.5 0.0000 0.0000
07:44 3.5 0.7 82 248 0.8 1.9 999.7 0.0000 0.0000
07:55 3.5 0.7 82 225 0.8 1.9 999.7 0.0000 0.0000
08:05 3.6 0.8 82 255 0.8 1.4 999.9 0.0000 0.0000
08:15 3.7 0.7 81 239 0.8 1.4 1000.2 0.0000 0.0000
08:25 3.6 0.6 81 270 0.3 1.4 1000 0.0000 0.0000
08:35 3.5 0.4 80 309 0.8 1.9 1000 0.0000 0.0000
08:45 3.4 0.3 80 270 0.3 1.1 999.9 0.1000 0.1000
08:55 3.4 0.5 81 299 0.8 1.4 999.9 0.1000 0.1000
09:05 3.3 0.4 81 304 0.3 1.4 999.8 0.1000 0.1000
09:15 3.3 0.4 81 293 0.8 1.4 999.2 0.2000 0.2000
09:25 3.3 0.4 81 315 0.8 1.4 998.7 0.2000 0.2000
09:35 3.3 0.4 81 251 0.8 1.9 998.5 0.1000 0.2000
09:46 3.3 0.4 81 270 0.8 1.4 998.2 0.1000 0.2000
09:56 3.3 0.4 81 315 0.8 1.4 998 0.1000 0.2000
10:05 3.2 0.3 81 345 0.8 1.9 998 0.1000 0.2000
10:16 3.2 0.3 81 270 0.8 2.2 997.8 0.1000 0.3000
10:26 3.2 0.3 81 307 0.8 1.4 997.5 0.1000 0.3000
10:36 3.2 0.3 81 315 0.8 2.2 997.4 0.1000 0.3000
10:46 3.2 0.3 81 319 0.8 1.4 997.3 0.1000 0.3000
10:56 3.3 0.4 81 257 0.8 1.9 997.1 0.1000 0.3000
11:06 3.3 0.4 81 289 0.8 2.5 996.9 0.2000 0.4000
11:16 3.3 0.4 81 280 0.8 1.4 996.9 0.1000 0.4000
11:26 3.4 0.5 81 270 0.8 2.5 996.5 0.1000 0.4000
11:36 3.4 0.5 81 291 0.8 1.4 996.1 0.2000 0.5000
11:46 3.4 0.5 81 315 0.8 2.2 996 0.2000 0.5000
11:56 3.4 0.5 81 243 0.8 1.9 995.7 0.2000 0.5000
12:07 3.5 0.6 81 270 0.8 3.1 995.5 0.1000 0.5000
12:17 3.6 0.6 81 270 0.8 2.2 995.3 0.1000 0.5000
12:26 3.7 0.7 81 310 0.8 1.4 994.9 0.0000 0.5000
12:37 3.8 0.8 81 270 0.8 1.9 994.8 0.0000 0.5000
12:47 3.9 0.9 81 249 0.8 1.9 994.6 0.0000 0.5000
12:57 4 1 81 239 1.1 2.2 994.4 0.0000 0.5000
13:07 4.1 1 80 245 0.8 2.2 994.2 0.0000 0.5000
13:17 4.2 1.1 80 270 0.8 3.1 993.9 0.0000 0.5000
13:27 4.4 1.3 80 252 0.8 1.9 993.6 0.0000 0.5000
13:37 4.4 1.1 79 287 0.8 2.2 993.4 0.0000 0.5000
13:47 4.5 1 78 236 1.1 2.2 993 0.0000 0.5000
13:58 4.6 1.1 78 251 0.8 2.5 993 0.0000 0.5000
14:07 4.7 1 77 270 0.8 2.2 992.9 0.0000 0.5000
14:17 4.7 1 77 243 0.8 2.2 992.7 0.0000 0.5000
14:28 4.7 1 77 270 0.8 1.9 992.5 0.0000 0.5000
14:38 4.7 1 77 270 0.8 1.9 992.2 0.0000 0.5000
14:47 4.7 1 77 280 0.8 1.9 991.9 0.0000 0.5000
14:57 4.7 1 77 288 0.8 1.4 991.9 0.0000 0.5000
15:08 4.7 1 77 270 0.8 1.4 991.7 0.0000 0.5000
15:18 4.6 0.9 77 257 0.8 2.2 991.6 0.0000 0.5000
15:28 4.5 0.8 77 296 0.8 1.9 991.4 0.1000 0.6000
15:38 4.5 0.8 77 270 0.8 2.2 991.2 0.1000 0.6000
15:48 4.4 0.7 77 322 0.8 2.5 990.9 0.1000 0.6000
15:58 4.3 0.6 77 251 0.8 1.9 991 0.1000 0.6000
16:08 4.3 0.6 77 270 1.1 2.5 990.6 0.1000 0.6000
16:18 4.2 0.5 77 228 1.1 2.2 990.4 0.1000 0.6000
16:25 4.2 0.5 77 259 1.1 2.5 990.3 0.0000 0.6000
16:34 4.2 0.5 77 231 1.1 2.2 990.1 0.1000 0.7000
16:46 4.1 0.4 77 270 1.1 2.5 989.8 0.3000 0.9000
16:56 4.1 0.6 78 246 1.1 3.3 989.8 0.3000 0.9000
17:06 4.1 0.6 78 247 1.1 2.2 989.6 0.4000 1.0000
17:17 4 0.5 78 243 1.1 2.5 989.3 0.4000 1.0000
17:27 4 0.3 77 279 1.1 2.2 989.2 0.4000 1.0000
17:36 4 0.5 78 236 0.8 2.2 989 0.2000 1.0000
17:47 3.9 0.2 77 8 1.1 2.5 988.8 0.1000 1.0000
17:57 3.8 0.1 77 330 0.8 3.1 988.4 0.1000 1.0000
18:07 3.7 0.2 78 18 1.1 2.2 988.2 0.0000 1.0000
18:17 3.7 0.2 78 338 1.1 3.1 988.1 0.0000 1.0000
18:27 3.6 0.1 78 341 0.8 3.1 987.9 0.0000 1.0000
18:37 3.5 0 78 349 1.1 2.5 987.7 0.0000 1.0000
18:47 3.5 0 78 344 1.1 2.5 987.5 0.0000 1.0000
18:58 3.5 0 78 295 1.1 3.6 987.4 0.0000 1.0000
19:07 3.6 0.1 78 270 1.1 2.5 987.2 0.0000 1.0000
19:17 3.5 0 78 308 1.1 3.3 986.9 0.0000 1.0000
19:27 3.5 0 78 330 1.1 3.1 986.8 0.0000 1.0000
19:38 3.5 0 78 336 0.8 2.2 986.8 0.0000 1.0000
19:48 3.5 0 78 348 1.1 2.5 986.7 0.0000 1.0000
19:57 3.5 0 78 335 1.1 4.2 986.3 0.0000 1.0000
20:08 3.5 0 78 10 1.1 3.1 986.2 0.0000 1.0000
20:18 3.4 -0.1 78 337 1.1 3.6 986 0.0000 1.0000
20:28 3.4 -0.1 78 5 1.1 4.4 985.8 0.0000 1.0000
20:38 3.4 -0.1 78 3 1.1 2.5 985.5 0.0000 1.0000
20:48 3.4 -0.1 78 1 1.1 4.2 985.5 0.0000 1.0000
20:58 3.4 -0.1 78 349 1.1 3.6 985.3 0.0000 1.0000
21:08 3.4 -0.1 78 19 1.1 2.2 985.1 0.0000 1.0000
21:28 3.4 -0.2 77 350 1.1 2.5 984.7 0.0000 1.0000
21:38 3.4 -0.2 77 11 1.4 3.6 984.4 0.0000 1.0000
21:48 3.4 -0.2 77 8 1.4 3.6 984.3 0.0000 1.0000
21:59 3.4 -0.2 77 318 1.1 3.1 984.1 0.0000 1.0000
22:09 3.5 -0.3 76 315 1.1 3.3 983.9 0.0000 1.0000
22:18 3.5 -0.3 76 1 1.1 3.3 983.9 0.0000 1.0000
22:29 3.5 -0.3 76 3 1.1 3.1 983.8 0.0000 1.0000
22:39 3.5 -0.3 76 24 1.4 4.7 983.6 0.0000 1.0000
22:49 3.5 -0.3 76 27 1.1 3.1 983.5 0.0000 1.0000
22:58 3.5 -0.3 76 3 1.1 3.3 983.2 0.0000 1.0000
23:09 3.5 -0.3 76 18 1.4 3.3 983.1 0.0000 1.0000
23:19 3.5 -0.3 76 346 1.1 3.3 982.8 0.0000
23:29 3.4 -0.4 76 15 1.1 3.3 982.6 0.0000
23:39 3.4 -0.4 76 14 1.4 4.2 982.2 0.0000
23:49 3.3 -0.5 76 21 1.4 3.1 981.9 0.0000

TAGESSTATISTIK

2020-12-03
TEMPERATUR
MITTEL
3.6
MAXIMUM
4.7
14:07
MINIMUM
2.9
01:22
LUFTDRUCK
MITTEL
994.7
MAXIMUM
1006.0
00:00
MINIMUM
981.9
23:49
TAUPUNKT
MITTEL
0.4
MAXIMUM
1.3
13:27
MINIMUM
-0.5
23:49
FEUCHTIGKEIT
MITTEL
80
MAXIMUM
83
02:03
MINIMUM
76
22:09
WINDSTÄRKE
MITTEL
0.8
MAXIMUM
1.4
21:38
WINDBÖE
MITTEL
2.1
MAXIMUM
4.7
22:39
WINDRICHTUNG
VORHERRSCHENDE
W
48.2%
N
18.2
NO
1.5
O
0.0
SO
0.0
S
0.0
SW
9.5
W
48.2
NW
22.6
NIEDERSCHLAG
REGEN STUNDE
0.4
REGEN TAG
1.0
TEMPERATUR (°C)
MINIMUM
2.9
MAXIMUM
4.7
MITTEL
3.6
LUFTDRUCK (hpa)
MINIMUM
981.9
MAXIMUM
1006.0
MITTEL
994.7
MESSGERÄT